MSC Paola — 9HA2581 — position and weather

sailwx.info

Track history (hours):
 
Tides and Currents Weather Stations Pressure Air Temp Water Temp Dewpoint Dewpoint Depression Visibility Wind Speed Wind Dir Waves Ship Positions

MSC Paola

Last reported at 2016-May-04 13:23 UTC. Time now 2016-May-06 01:37 UTC.
Position N 26°23' W 078°36'.

Length 243 m; draft 8.3 m.

Type: Ship (hazmat cat A). MMSI: 248931000.

Date/timePositionNaut miles runAvg speedWind from/ knotsBaromVisibWave heightAir tempDewpointWater temp
2016-May-04 13:23N 26°23' W 078°36'1215.1
2016-May-04 12:33N 26°29' W 078°48'29 2.6
2016-May-04 01:26N 26°47' W 079°14'1517.4
2016-May-04 00:33N 27°02' W 079°16'1916.8
2016-May-03 23:25N 27°21' W 079°19'399 9.0
2016-May-02 03:11N 33°42' W 077°02'1417.6
2016-May-02 02:24N 33°51' W 076°50'1817.7
2016-May-02 01:22N 34°03' W 076°33'1717.5
2016-May-02 00:24N 34°14' W 076°18'1517.7
2016-May-01 23:32N 34°24' W 076°04'1717.7
2016-May-01 22:33N 34°36' W 075°48'13014.2
2016-May-01 13:23N 36°46' W 075°41'1315.8
2016-May-01 12:33N 36°53' W 075°55'1514.9
2016-May-01 11:33N 36°60' W 076°11'9 9.2
2016-May-01 10:33N 36°54' W 076°20'1 1.4
2016-May-01 09:32N 36°52' W 076°21'0 0.0
2016-May-01 08:24N 36°52' W 076°21'0 0.0
2016-May-01 07:33N 36°52' W 076°21'0 0.0
2016-May-01 06:27N 36°52' W 076°21'0 0.0
2016-May-01 05:30N 36°52' W 076°21'0 0.0
2016-May-01 04:27N 36°52' W 076°21'0 0.0
2016-May-01 03:32N 36°52' W 076°21'0 0.0
2016-May-01 02:31N 36°52' W 076°21'0 0.0
2016-May-01 01:32N 36°52' W 076°21'0 0.0
2016-May-01 00:31N 36°52' W 076°21'0 0.0
2016-Apr-30 23:33N 36°52' W 076°21'0 0.0
2016-Apr-30 22:32N 36°52' W 076°21'0 0.0
2016-Apr-30 21:33N 36°52' W 076°21'2 1.8
2016-Apr-30 20:34N 36°54' W 076°20'10 9.4
2016-Apr-30 19:30N 36°59' W 076°10'1212.5
2016-Apr-30 18:34N 36°56' W 075°56'10 9.2
2016-Apr-30 17:26N 36°49' W 075°45'5 0.7
2016-Apr-30 10:20N 36°48' W 075°39'7 9.5
2016-Apr-30 09:33N 36°50' W 075°48'10 9.7
2016-Apr-30 08:33N 36°56' W 075°58'6213.7
2016-Apr-30 04:04N 37°57' W 076°10'916.2
2016-Apr-30 03:30N 38°05' W 076°13'1212.6
2016-Apr-30 02:33N 38°17' W 076°17'3115.8
2016-Apr-30 00:34N 38°48' W 076°25'1716.5
2016-Apr-29 23:33N 39°04' W 076°24'1211.9
2016-Apr-29 22:33N 39°14' W 076°33'2 1.5
2016-Apr-29 21:29N 39°15' W 076°33'0 0.0
2016-Apr-29 20:32N 39°15' W 076°33'0 0.0
2016-Apr-29 19:32N 39°15' W 076°33'0 0.0
2016-Apr-29 18:30N 39°15' W 076°33'0 0.0
2016-Apr-29 17:32N 39°15' W 076°33'0 0.0
2016-Apr-29 16:27N 39°15' W 076°33'0 0.0
2016-Apr-29 15:33N 39°15' W 076°33'0 0.0
2016-Apr-29 14:29N 39°15' W 076°33'2 2.7
2016-Apr-29 13:33N 39°13' W 076°32'1010.0
2016-Apr-29 12:33N 39°05' W 076°24'1616.1
2016-Apr-29 11:33N 38°49' W 076°25'11416.3
2016-Apr-29 04:32N 36°57' W 075°58'9 9.0
2016-Apr-29 03:33N 36°52' W 075°50'15615.6
2016-Apr-28 17:33N 39°00' W 073°59'1515.1
2016-Apr-28 16:33N 39°15' W 073°54'1515.0
2016-Apr-28 15:34N 39°30' W 073°54'1515.0
2016-Apr-28 14:34N 39°45' W 073°52'1514.8
2016-Apr-28 13:32N 39°60' W 073°51'1211.5
2016-Apr-28 12:29N 40°12' W 073°50'9 9.7
2016-Apr-28 11:33N 40°21' W 073°49'8 7.5
2016-Apr-28 10:33N 40°28' W 073°52'1312.9
2016-Apr-28 09:33N 40°38' W 074°03'5 4.9
2016-Apr-28 08:32N 40°41' W 074°09'1 0.6
2016-Apr-28 07:30N 40°41' W 074°09'0 0.0
2016-Apr-28 06:33N 40°41' W 074°09'0 0.0
2016-Apr-28 05:31N 40°41' W 074°09'0 0.0
2016-Apr-28 04:25N 40°41' W 074°09'0 0.0
2016-Apr-28 03:24N 40°41' W 074°09'0 0.0
2016-Apr-28 02:31N 40°41' W 074°09'0 0.0
2016-Apr-28 01:33N 40°41' W 074°09'0 0.0
2016-Apr-28 00:26N 40°41' W 074°09'0 0.0
2016-Apr-27 23:28N 40°41' W 074°09'0 0.0
2016-Apr-27 22:26N 40°41' W 074°09'0 0.0
2016-Apr-27 21:29N 40°41' W 074°09'0 0.0
2016-Apr-27 20:32N 40°41' W 074°09'0 0.0
2016-Apr-27 19:27N 40°41' W 074°09'0 0.0
2016-Apr-27 18:32N 40°41' W 074°09'0 0.0
2016-Apr-27 17:30N 40°41' W 074°09'0 0.0
2016-Apr-27 16:32N 40°41' W 074°09'0 0.0
2016-Apr-27 15:19N 40°41' W 074°09'0 0.0
2016-Apr-27 14:33N 40°41' W 074°09'0 0.0
2016-Apr-27 13:28N 40°41' W 074°09'0 0.0
2016-Apr-27 12:26N 40°41' W 074°09'0 0.0
2016-Apr-27 11:32N 40°41' W 074°09'0 0.0
2016-Apr-27 10:33N 40°41' W 074°09'3 3.0
2016-Apr-27 09:33N 40°39' W 074°07'9 9.3
2016-Apr-27 08:33N 40°31' W 073°60'  
Track history (hours):
 
Tides and Currents Weather Stations Pressure Air Temp Water Temp Dewpoint Dewpoint Depression Visibility Wind Speed Wind Dir Waves Ship Positions

MSC Paola

Last reported at 2016-May-04 13:23 UTC. Time now 2016-May-06 01:37 UTC.
Position N 26°23' W 078°36'.

Length 243 m; draft 8.3 m.

Type: Ship (hazmat cat A). MMSI: 248931000.

Date/timePositionNaut miles runAvg speedWind from/ knotsBaromVisibWave heightAir tempDewpointWater temp
2016-May-04 13:23N 26°23' W 078°36'1215.1
2016-May-04 12:33N 26°29' W 078°48'29 2.6
2016-May-04 01:26N 26°47' W 079°14'1517.4
2016-May-04 00:33N 27°02' W 079°16'1916.8
2016-May-03 23:25N 27°21' W 079°19'399 9.0
2016-May-02 03:11N 33°42' W 077°02'1417.6
2016-May-02 02:24N 33°51' W 076°50'1817.7
2016-May-02 01:22N 34°03' W 076°33'1717.5
2016-May-02 00:24N 34°14' W 076°18'1517.7
2016-May-01 23:32N 34°24' W 076°04'1717.7
2016-May-01 22:33N 34°36' W 075°48'13014.2
2016-May-01 13:23N 36°46' W 075°41'1315.8
2016-May-01 12:33N 36°53' W 075°55'1514.9
2016-May-01 11:33N 36°60' W 076°11'9 9.2
2016-May-01 10:33N 36°54' W 076°20'1 1.4
2016-May-01 09:32N 36°52' W 076°21'0 0.0
2016-May-01 08:24N 36°52' W 076°21'0 0.0
2016-May-01 07:33N 36°52' W 076°21'0 0.0
2016-May-01 06:27N 36°52' W 076°21'0 0.0
2016-May-01 05:30N 36°52' W 076°21'0 0.0
2016-May-01 04:27N 36°52' W 076°21'0 0.0
2016-May-01 03:32N 36°52' W 076°21'0 0.0
2016-May-01 02:31N 36°52' W 076°21'0 0.0
2016-May-01 01:32N 36°52' W 076°21'0 0.0
2016-May-01 00:31N 36°52' W 076°21'0 0.0
2016-Apr-30 23:33N 36°52' W 076°21'0 0.0
2016-Apr-30 22:32N 36°52' W 076°21'0 0.0
2016-Apr-30 21:33N 36°52' W 076°21'2 1.8
2016-Apr-30 20:34N 36°54' W 076°20'10 9.4
2016-Apr-30 19:30N 36°59' W 076°10'1212.5
2016-Apr-30 18:34N 36°56' W 075°56'10 9.2
2016-Apr-30 17:26N 36°49' W 075°45'5 0.7
2016-Apr-30 10:20N 36°48' W 075°39'7 9.5
2016-Apr-30 09:33N 36°50' W 075°48'10 9.7
2016-Apr-30 08:33N 36°56' W 075°58'6213.7
2016-Apr-30 04:04N 37°57' W 076°10'916.2
2016-Apr-30 03:30N 38°05' W 076°13'1212.6
2016-Apr-30 02:33N 38°17' W 076°17'3115.8
2016-Apr-30 00:34N 38°48' W 076°25'1716.5
2016-Apr-29 23:33N 39°04' W 076°24'1211.9
2016-Apr-29 22:33N 39°14' W 076°33'2 1.5
2016-Apr-29 21:29N 39°15' W 076°33'0 0.0
2016-Apr-29 20:32N 39°15' W 076°33'0 0.0
2016-Apr-29 19:32N 39°15' W 076°33'0 0.0
2016-Apr-29 18:30N 39°15' W 076°33'0 0.0
2016-Apr-29 17:32N 39°15' W 076°33'0 0.0
2016-Apr-29 16:27N 39°15' W 076°33'0 0.0
2016-Apr-29 15:33N 39°15' W 076°33'0 0.0
2016-Apr-29 14:29N 39°15' W 076°33'2 2.7
2016-Apr-29 13:33N 39°13' W 076°32'1010.0
2016-Apr-29 12:33N 39°05' W 076°24'1616.1
2016-Apr-29 11:33N 38°49' W 076°25'11416.3
2016-Apr-29 04:32N 36°57' W 075°58'9 9.0
2016-Apr-29 03:33N 36°52' W 075°50'15615.6
2016-Apr-28 17:33N 39°00' W 073°59'1515.1
2016-Apr-28 16:33N 39°15' W 073°54'1515.0
2016-Apr-28 15:34N 39°30' W 073°54'1515.0
2016-Apr-28 14:34N 39°45' W 073°52'1514.8
2016-Apr-28 13:32N 39°60' W 073°51'1211.5
2016-Apr-28 12:29N 40°12' W 073°50'9 9.7
2016-Apr-28 11:33N 40°21' W 073°49'8 7.5
2016-Apr-28 10:33N 40°28' W 073°52'1312.9
2016-Apr-28 09:33N 40°38' W 074°03'5 4.9
2016-Apr-28 08:32N 40°41' W 074°09'1 0.6
2016-Apr-28 07:30N 40°41' W 074°09'0 0.0
2016-Apr-28 06:33N 40°41' W 074°09'0 0.0
2016-Apr-28 05:31N 40°41' W 074°09'0 0.0
2016-Apr-28 04:25N 40°41' W 074°09'0 0.0
2016-Apr-28 03:24N 40°41' W 074°09'0 0.0
2016-Apr-28 02:31N 40°41' W 074°09'0 0.0
2016-Apr-28 01:33N 40°41' W 074°09'0 0.0
2016-Apr-28 00:26N 40°41' W 074°09'0 0.0
2016-Apr-27 23:28N 40°41' W 074°09'0 0.0
2016-Apr-27 22:26N 40°41' W 074°09'0 0.0
2016-Apr-27 21:29N 40°41' W 074°09'0 0.0
2016-Apr-27 20:32N 40°41' W 074°09'0 0.0
2016-Apr-27 19:27N 40°41' W 074°09'0 0.0
2016-Apr-27 18:32N 40°41' W 074°09'0 0.0
2016-Apr-27 17:30N 40°41' W 074°09'0 0.0
2016-Apr-27 16:32N 40°41' W 074°09'0 0.0
2016-Apr-27 15:19N 40°41' W 074°09'0 0.0
2016-Apr-27 14:33N 40°41' W 074°09'0 0.0
2016-Apr-27 13:28N 40°41' W 074°09'0 0.0
2016-Apr-27 12:26N 40°41' W 074°09'0 0.0
2016-Apr-27 11:32N 40°41' W 074°09'0 0.0
2016-Apr-27 10:33N 40°41' W 074°09'3 3.0
2016-Apr-27 09:33N 40°39' W 074°07'9 9.3
2016-Apr-27 08:33N 40°31' W 073°60'  

Dump ship's entire track history